Time;durP1;ratioP1;P1;durP2;ratioP2;P2;SDS_P1;SDS_P2;PMS_P1;PMS_P2;Temp;Humidity;BMP_temperature;BMP_pressure;BME280_temperature;BME280_humidity;BME280_pressure;Samples;Min_cycle;Max_cycle;Signal;HPM_P1;HPM_P2
2023/01/31 00:01:37;;;;;;;2.22;1.10;;;;;;;;;;5018265;28;20204;-52
2023/01/31 00:04:05;;;;;;;1.45;1.02;;;;;;;;;;5015781;28;20259;-52
2023/01/31 00:06:32;;;;;;;1.17;0.73;;;;;;;;;;5016484;28;20288;-52
2023/01/31 00:08:58;;;;;;;2.10;1.13;;;;;;;;;;5014950;28;20543;-52
2023/01/31 00:11:25;;;;;;;2.15;1.08;;;;;;;;;;5016995;28;20188;-52
2023/01/31 00:13:52;;;;;;;1.20;0.77;;;;;;;;;;5013708;28;20199;-52
2023/01/31 00:16:18;;;;;;;1.58;0.80;;;;;;;;;;5013903;28;20244;-52
2023/01/31 00:18:44;;;;;;;2.55;0.73;;;;;;;;;;5017623;28;20187;-52
2023/01/31 00:21:12;;;;;;;1.65;1.00;;;;;;;;;;5017601;28;20189;-52
2023/01/31 00:23:38;;;;;;;0.90;0.80;;;;;;;;;;5016943;28;20176;-52
2023/01/31 00:26:07;;;;;;;1.55;0.90;;;;;;;;;;5017206;28;20189;-52
2023/01/31 00:28:33;;;;;;;1.23;0.88;;;;;;;;;;5017666;28;20204;-52
2023/01/31 00:30:59;;;;;;;1.15;0.80;;;;;;;;;;5017660;28;20218;-52
2023/01/31 00:33:25;;;;;;;1.42;0.85;;;;;;;;;;5013793;28;20181;-52
2023/01/31 00:35:51;;;;;;;1.73;1.00;;;;;;;;;;5016294;28;20222;-52
2023/01/31 00:38:17;;;;;;;3.00;0.98;;;;;;;;;;5017637;28;20191;-52
2023/01/31 00:40:50;;;;;;;1.73;1.00;;;;;;;;;;5013863;28;20466;-52
2023/01/31 00:43:16;;;;;;;1.17;1.08;;;;;;;;;;5017572;28;20267;-52
2023/01/31 00:45:42;;;;;;;1.52;0.90;;;;;;;;;;5016232;28;20291;-52
2023/01/31 00:48:08;;;;;;;1.23;1.00;;;;;;;;;;5015840;28;20196;-52
2023/01/31 00:50:34;;;;;;;2.05;0.98;;;;;;;;;;5015706;28;20196;-52
2023/01/31 00:53:00;;;;;;;1.08;0.90;;;;;;;;;;5007941;28;20177;-52
2023/01/31 00:55:26;;;;;;;0.85;0.65;;;;;;;;;;5011481;28;20572;-52
2023/01/31 00:57:51;;;;;;;1.05;0.68;;;;;;;;;;5009686;28;20552;-52
2023/01/31 01:00:17;;;;;;;2.10;0.73;;;;;;;;;;5016350;28;20176;-52
2023/01/31 01:02:43;;;;;;;1.17;0.85;;;;;;;;;;5013438;28;20189;-53
2023/01/31 01:05:09;;;;;;;1.42;0.80;;;;;;;;;;5016232;28;20226;-52
2023/01/31 01:07:35;;;;;;;1.27;0.70;;;;;;;;;;5015590;28;20494;-52
2023/01/31 01:10:01;;;;;;;2.10;0.80;;;;;;;;;;5012152;28;20245;-52
2023/01/31 01:12:27;;;;;;;1.58;0.80;;;;;;;;;;5014164;28;20278;-52
2023/01/31 01:14:53;;;;;;;1.08;0.75;;;;;;;;;;5009624;28;20556;-52
2023/01/31 01:17:19;;;;;;;1.45;0.80;;;;;;;;;;5014867;28;20250;-52
2023/01/31 01:19:45;;;;;;;1.45;0.80;;;;;;;;;;5010461;28;20450;-52
2023/01/31 01:22:14;;;;;;;4.03;0.90;;;;;;;;;;5009605;28;20189;-52
2023/01/31 01:24:41;;;;;;;3.00;0.88;;;;;;;;;;5005102;28;20188;-52
2023/01/31 01:27:07;;;;;;;1.13;0.68;;;;;;;;;;5014431;28;20192;-52
2023/01/31 01:29:33;;;;;;;1.48;1.00;;;;;;;;;;5004006;28;20199;-52
2023/01/31 01:31:59;;;;;;;1.65;1.00;;;;;;;;;;5009232;28;20184;-51
2023/01/31 01:34:25;;;;;;;1.20;0.73;;;;;;;;;;5007231;28;20181;-51
2023/01/31 01:36:51;;;;;;;1.80;0.70;;;;;;;;;;5011864;28;20494;-51
2023/01/31 01:39:17;;;;;;;0.95;0.70;;;;;;;;;;5007617;28;20215;-51
2023/01/31 01:41:43;;;;;;;1.17;0.70;;;;;;;;;;5016110;28;20177;-51
2023/01/31 01:44:28;;;;;;;1.23;0.77;;;;;;;;;;5011621;28;20188;-51
2023/01/31 01:46:54;;;;;;;0.75;0.70;;;;;;;;;;5011224;28;20214;-52
2023/01/31 01:49:27;;;;;;;0.75;0.65;;;;;;;;;;5015580;28;20461;-52
2023/01/31 01:51:55;;;;;;;2.10;0.80;;;;;;;;;;5011168;28;20180;-52
2023/01/31 01:54:23;;;;;;;1.88;0.82;;;;;;;;;;5013222;28;20230;-52
2023/01/31 01:56:51;;;;;;;0.68;0.68;;;;;;;;;;5011595;28;20204;-52
2023/01/31 01:59:20;;;;;;;1.48;0.80;;;;;;;;;;5015333;28;20189;-52
2023/01/31 02:01:46;;;;;;;0.70;0.60;;;;;;;;;;5014532;28;20263;-52
2023/01/31 02:04:15;;;;;;;1.42;0.70;;;;;;;;;;5013957;28;20188;-52
2023/01/31 02:06:41;;;;;;;1.08;0.60;;;;;;;;;;5014692;28;20574;-52
2023/01/31 02:09:08;;;;;;;0.90;0.70;;;;;;;;;;5011771;28;20196;-52
2023/01/31 02:11:34;;;;;;;1.45;0.77;;;;;;;;;;5006905;28;20212;-52
2023/01/31 02:14:02;;;;;;;0.63;0.60;;;;;;;;;;5016223;28;20227;-52
2023/01/31 02:16:28;;;;;;;2.67;0.70;;;;;;;;;;5014660;28;20211;-52
2023/01/31 02:18:54;;;;;;;0.85;0.57;;;;;;;;;;5016131;28;20195;-52
2023/01/31 02:21:39;;;;;;;0.60;0.60;;;;;;;;;;5015408;28;20242;-52
2023/01/31 02:24:08;;;;;;;0.82;0.57;;;;;;;;;;5014850;28;20195;-52
2023/01/31 02:26:48;;;;;;;1.70;0.90;;;;;;;;;;5010494;28;20205;-52
2023/01/31 02:29:23;;;;;;;1.30;0.70;;;;;;;;;;5015161;28;20562;-52
2023/01/31 02:32:02;;;;;;;1.15;0.68;;;;;;;;;;5015603;28;20199;-52
2023/01/31 02:34:35;;;;;;;1.45;1.00;;;;;;;;;;5014737;28;20188;-52
2023/01/31 02:37:17;;;;;;;0.95;0.55;;;;;;;;;;5011580;28;20236;-52
2023/01/31 02:39:52;;;;;;;2.35;0.75;;;;;;;;;;5014784;28;20236;-52
2023/01/31 02:42:23;;;;;;;1.52;0.60;;;;;;;;;;5011887;28;20449;-52
2023/01/31 02:44:58;;;;;;;1.35;0.80;;;;;;;;;;5006318;28;20235;-52
2023/01/31 02:47:39;;;;;;;1.40;0.55;;;;;;;;;;5011817;28;20179;-52
2023/01/31 02:50:25;;;;;;;1.00;0.70;;;;;;;;;;5009941;28;20238;-52
2023/01/31 02:52:59;;;;;;;2.42;0.60;;;;;;;;;;5010479;28;20275;-52
2023/01/31 02:58:24;;;;;;;1.63;0.88;;;;;;;;;;5005831;28;20247;-52
2023/01/31 03:00:50;;;;;;;1.42;0.80;;;;;;;;;;5010874;28;20468;-52
2023/01/31 03:03:24;;;;;;;1.85;0.63;;;;;;;;;;5011302;28;20567;-52
2023/01/31 03:06:09;;;;;;;1.00;0.68;;;;;;;;;;5007364;28;20359;-52
2023/01/31 03:08:36;;;;;;;1.23;0.82;;;;;;;;;;5011160;28;20548;-52
2023/01/31 03:11:03;;;;;;;4.10;0.63;;;;;;;;;;5008210;28;20556;-52
2023/01/31 03:13:36;;;;;;;1.30;0.80;;;;;;;;;;5013171;28;20238;-53
2023/01/31 03:19:01;;;;;;;2.30;0.70;;;;;;;;;;5008953;28;20277;-53
2023/01/31 03:21:31;;;;;;;1.10;0.82;;;;;;;;;;5010837;28;20214;-52
2023/01/31 03:23:57;;;;;;;4.97;0.90;;;;;;;;;;5014411;28;20238;-53
2023/01/31 03:26:25;;;;;;;1.65;1.05;;;;;;;;;;5011571;28;20207;-52
2023/01/31 03:28:55;;;;;;;3.72;1.15;;;;;;;;;;5013571;28;20187;-52
2023/01/31 03:31:27;;;;;;;1.83;0.93;;;;;;;;;;5009828;28;20303;-52
2023/01/31 03:33:54;;;;;;;2.55;1.38;;;;;;;;;;5008472;28;20523;-52
2023/01/31 03:36:29;;;;;;;2.72;1.60;;;;;;;;;;5009342;28;20774;-52
2023/01/31 03:39:05;;;;;;;3.17;1.73;;;;;;;;;;5014393;28;20718;-52
2023/01/31 03:41:39;;;;;;;2.70;1.83;;;;;;;;;;5010059;28;20184;-52
2023/01/31 03:44:24;;;;;;;2.50;1.67;;;;;;;;;;5013379;28;20184;-52
2023/01/31 03:46:53;;;;;;;2.00;1.70;;;;;;;;;;5001861;28;20182;-52
2023/01/31 03:49:19;;;;;;;3.75;1.60;;;;;;;;;;5008784;28;20315;-52
2023/01/31 03:51:48;;;;;;;1.58;1.40;;;;;;;;;;5006359;28;20211;-52
2023/01/31 03:54:18;;;;;;;2.47;1.88;;;;;;;;;;5007818;28;20185;-52
2023/01/31 03:56:47;;;;;;;1.98;1.50;;;;;;;;;;5013027;28;20216;-52
2023/01/31 03:59:18;;;;;;;2.92;1.40;;;;;;;;;;5002456;28;20264;-52
2023/01/31 04:01:47;;;;;;;2.92;1.70;;;;;;;;;;5003564;28;20176;-52
2023/01/31 04:04:20;;;;;;;2.25;1.23;;;;;;;;;;5006051;28;20205;-52
2023/01/31 04:06:46;;;;;;;1.77;1.27;;;;;;;;;;5016950;28;20212;-52
2023/01/31 04:09:12;;;;;;;1.85;1.27;;;;;;;;;;5013275;28;20193;-52
2023/01/31 04:11:39;;;;;;;2.35;1.40;;;;;;;;;;5016398;28;20546;-52
2023/01/31 04:14:06;;;;;;;1.95;1.33;;;;;;;;;;5016465;28;20196;-52
2023/01/31 04:16:32;;;;;;;1.63;1.17;;;;;;;;;;5016923;28;20220;-52
2023/01/31 04:18:58;;;;;;;2.20;1.33;;;;;;;;;;5018109;28;20185;-53
2023/01/31 04:21:24;;;;;;;2.95;1.20;;;;;;;;;;5014632;28;20223;-52
2023/01/31 04:23:49;;;;;;;2.42;1.25;;;;;;;;;;5018216;28;20176;-52
2023/01/31 04:26:15;;;;;;;1.63;1.10;;;;;;;;;;5016084;28;20200;-52
2023/01/31 04:28:41;;;;;;;2.47;1.27;;;;;;;;;;5011069;28;20627;-52
2023/01/31 04:31:07;;;;;;;1.23;1.08;;;;;;;;;;5014235;28;20216;-52
2023/01/31 04:33:33;;;;;;;2.72;1.40;;;;;;;;;;5012644;28;20192;-52
2023/01/31 04:35:59;;;;;;;1.50;1.10;;;;;;;;;;5016733;28;20606;-53
2023/01/31 04:38:25;;;;;;;1.80;1.05;;;;;;;;;;5017639;28;20173;-52
2023/01/31 04:40:51;;;;;;;0.93;0.80;;;;;;;;;;5017201;28;20183;-52
2023/01/31 04:43:17;;;;;;;1.67;0.90;;;;;;;;;;5012740;28;20200;-53
2023/01/31 04:45:43;;;;;;;2.45;1.08;;;;;;;;;;5015823;28;20192;-52
2023/01/31 04:48:09;;;;;;;1.42;1.00;;;;;;;;;;5009959;28;20426;-52
2023/01/31 04:50:35;;;;;;;3.00;1.10;;;;;;;;;;5008618;28;20184;-52
2023/01/31 04:53:01;;;;;;;0.80;0.70;;;;;;;;;;5013202;28;20196;-52
2023/01/31 04:55:27;;;;;;;3.20;1.10;;;;;;;;;;5009305;28;20184;-52
2023/01/31 04:57:53;;;;;;;1.83;1.13;;;;;;;;;;5016398;28;20191;-52
2023/01/31 05:00:19;;;;;;;1.55;1.00;;;;;;;;;;5015831;28;20200;-53
2023/01/31 05:02:45;;;;;;;1.23;0.90;;;;;;;;;;5013118;28;20192;-52
2023/01/31 05:05:11;;;;;;;3.58;1.05;;;;;;;;;;5009585;28;20204;-53
2023/01/31 05:07:38;;;;;;;4.07;0.82;;;;;;;;;;5009491;28;20615;-52
2023/01/31 05:10:05;;;;;;;2.47;1.00;;;;;;;;;;5015668;28;20205;-52
2023/01/31 05:12:31;;;;;;;0.70;0.60;;;;;;;;;;5011800;28;20188;-52
2023/01/31 05:14:57;;;;;;;1.80;0.75;;;;;;;;;;5014956;28;20177;-52
2023/01/31 05:17:28;;;;;;;1.42;0.82;;;;;;;;;;5016295;28;20214;-52
2023/01/31 05:19:55;;;;;;;1.63;0.90;;;;;;;;;;5007599;28;20238;-52
2023/01/31 05:22:21;;;;;;;2.35;1.05;;;;;;;;;;5016047;28;20184;-52
2023/01/31 05:24:47;;;;;;;2.97;0.90;;;;;;;;;;5014614;28;20181;-52
2023/01/31 05:27:13;;;;;;;3.85;0.80;;;;;;;;;;5015704;28;20589;-53
2023/01/31 05:29:39;;;;;;;3.75;1.00;;;;;;;;;;5013677;28;20189;-53
2023/01/31 05:32:05;;;;;;;2.92;0.98;;;;;;;;;;5008803;28;20231;-53
2023/01/31 05:34:32;;;;;;;1.83;0.77;;;;;;;;;;5007260;28;20663;-53
2023/01/31 05:36:59;;;;;;;3.60;0.70;;;;;;;;;;5009432;28;20224;-53
2023/01/31 05:39:25;;;;;;;1.95;0.82;;;;;;;;;;5012631;28;20192;-53
2023/01/31 05:41:51;;;;;;;0.73;0.73;;;;;;;;;;5012100;28;20181;-53
2023/01/31 05:44:17;;;;;;;4.20;0.80;;;;;;;;;;5013054;28;20178;-53
2023/01/31 05:46:44;;;;;;;0.93;0.70;;;;;;;;;;5015765;28;20227;-53
2023/01/31 05:49:10;;;;;;;3.45;0.77;;;;;;;;;;5014877;28;20418;-53
2023/01/31 05:51:36;;;;;;;1.67;0.75;;;;;;;;;;5014085;28;20694;-53
2023/01/31 05:54:02;;;;;;;4.20;0.80;;;;;;;;;;5005009;28;20193;-53
2023/01/31 05:56:28;;;;;;;2.42;0.90;;;;;;;;;;5015037;28;20247;-53
2023/01/31 05:58:54;;;;;;;2.97;1.00;;;;;;;;;;5015098;28;20219;-51
2023/01/31 06:01:20;;;;;;;4.03;1.40;;;;;;;;;;5013248;28;20176;-51
2023/01/31 06:03:46;;;;;;;13.35;1.70;;;;;;;;;;5011839;28;20195;-53
2023/01/31 06:06:12;;;;;;;9.75;2.33;;;;;;;;;;5011429;28;20267;-50
2023/01/31 06:08:40;;;;;;;8.85;1.95;;;;;;;;;;5013635;28;20650;-52
2023/01/31 06:11:06;;;;;;;7.78;2.10;;;;;;;;;;5015059;28;20295;-53
2023/01/31 06:13:32;;;;;;;12.73;2.25;;;;;;;;;;5014858;28;20259;-53
2023/01/31 06:15:58;;;;;;;6.70;2.08;;;;;;;;;;5013268;28;20204;-53
2023/01/31 06:18:25;;;;;;;7.57;1.83;;;;;;;;;;5010643;28;20440;-53
2023/01/31 06:20:51;;;;;;;7.40;2.17;;;;;;;;;;5014742;28;20185;-53
2023/01/31 06:23:17;;;;;;;6.43;1.77;;;;;;;;;;5015273;28;20189;-54
2023/01/31 06:25:43;;;;;;;7.97;1.88;;;;;;;;;;5008796;28;20507;-53
2023/01/31 06:28:09;;;;;;;8.40;2.10;;;;;;;;;;5015629;28;20241;-54
2023/01/31 06:30:35;;;;;;;7.70;1.75;;;;;;;;;;5015399;28;20307;-54
2023/01/31 06:33:01;;;;;;;6.97;1.75;;;;;;;;;;5015393;28;20176;-54
2023/01/31 06:35:27;;;;;;;9.00;2.17;;;;;;;;;;5015335;28;20265;-54
2023/01/31 06:37:54;;;;;;;7.43;1.92;;;;;;;;;;5015753;28;20271;-53
2023/01/31 06:40:20;;;;;;;6.28;1.63;;;;;;;;;;5014089;28;20196;-53
2023/01/31 06:42:46;;;;;;;5.57;1.73;;;;;;;;;;5013219;28;20180;-53
2023/01/31 06:45:12;;;;;;;5.82;1.88;;;;;;;;;;5011525;28;20188;-53
2023/01/31 06:47:38;;;;;;;6.22;1.75;;;;;;;;;;5015248;28;20540;-53
2023/01/31 06:50:04;;;;;;;5.35;1.63;;;;;;;;;;5011560;28;20188;-53
2023/01/31 06:52:30;;;;;;;7.00;1.90;;;;;;;;;;5013156;28;20185;-53
2023/01/31 06:54:56;;;;;;;6.70;1.67;;;;;;;;;;5013371;28;20180;-53
2023/01/31 06:57:22;;;;;;;4.68;1.65;;;;;;;;;;5014646;28;20216;-53
2023/01/31 06:59:48;;;;;;;5.25;1.83;;;;;;;;;;5008302;28;20541;-53
2023/01/31 07:02:14;;;;;;;4.93;1.48;;;;;;;;;;5010767;28;20184;-53
2023/01/31 07:04:39;;;;;;;8.75;1.75;;;;;;;;;;5011041;28;20208;-53
2023/01/31 07:07:05;;;;;;;4.25;1.67;;;;;;;;;;5006483;28;20577;-54
2023/01/31 07:09:31;;;;;;;5.57;1.42;;;;;;;;;;5010707;28;20187;-53
2023/01/31 07:11:57;;;;;;;3.90;1.10;;;;;;;;;;5011975;28;20602;-53
2023/01/31 07:14:23;;;;;;;3.90;1.30;;;;;;;;;;5012349;28;20512;-53
2023/01/31 07:16:49;;;;;;;4.57;1.52;;;;;;;;;;5006820;28;20225;-53
2023/01/31 07:19:15;;;;;;;6.00;1.67;;;;;;;;;;5011609;28;20189;-53
2023/01/31 07:21:41;;;;;;;3.88;1.50;;;;;;;;;;5006904;28;20189;-54
2023/01/31 07:24:07;;;;;;;2.35;1.27;;;;;;;;;;5010721;28;20184;-54
2023/01/31 07:26:33;;;;;;;2.53;1.30;;;;;;;;;;5013673;28;20238;-54
2023/01/31 07:28:59;;;;;;;5.45;1.70;;;;;;;;;;5013598;28;20271;-54
2023/01/31 07:31:25;;;;;;;3.88;1.38;;;;;;;;;;5007171;28;20284;-53
2023/01/31 07:33:51;;;;;;;3.78;1.10;;;;;;;;;;5000760;28;20296;-53
2023/01/31 07:36:23;;;;;;;4.45;1.25;;;;;;;;;;5012214;28;20204;-53
2023/01/31 07:38:49;;;;;;;6.93;1.63;;;;;;;;;;5015429;28;20173;-53
2023/01/31 07:41:15;;;;;;;4.10;1.33;;;;;;;;;;5017941;28;20186;-53
2023/01/31 07:43:41;;;;;;;4.32;1.10;;;;;;;;;;5014099;28;20785;-53
2023/01/31 07:46:09;;;;;;;3.80;1.58;;;;;;;;;;5016047;28;20464;-53
2023/01/31 07:48:35;;;;;;;3.38;1.40;;;;;;;;;;5010464;28;20273;-53
2023/01/31 07:51:01;;;;;;;3.75;1.40;;;;;;;;;;5012112;28;20291;-53
2023/01/31 07:53:28;;;;;;;4.30;1.15;;;;;;;;;;5015433;28;20481;-53
2023/01/31 07:55:54;;;;;;;3.17;1.15;;;;;;;;;;5018119;28;20473;-53
2023/01/31 07:58:20;;;;;;;2.70;1.20;;;;;;;;;;5013858;28;20181;-54
2023/01/31 08:03:31;;;;;;;2.13;1.20;;;;;;;;;;5012562;28;20207;-54
2023/01/31 08:05:57;;;;;;;3.42;1.40;;;;;;;;;;5013853;28;20216;-54
2023/01/31 08:08:23;;;;;;;4.63;1.20;;;;;;;;;;5012670;28;20577;-54
2023/01/31 08:10:49;;;;;;;3.03;1.23;;;;;;;;;;5014130;28;20215;-54
2023/01/31 08:13:14;;;;;;;2.97;1.30;;;;;;;;;;5018338;28;20192;-53
2023/01/31 08:15:40;;;;;;;2.55;1.23;;;;;;;;;;5017779;28;20322;-53
2023/01/31 08:18:06;;;;;;;3.10;1.23;;;;;;;;;;5016773;28;20614;-53
2023/01/31 08:20:32;;;;;;;1.98;1.20;;;;;;;;;;5014034;28;20196;-53
2023/01/31 08:22:59;;;;;;;2.85;1.23;;;;;;;;;;5011480;28;20181;-53
2023/01/31 08:25:27;;;;;;;4.55;1.08;;;;;;;;;;5017738;28;20183;-51
2023/01/31 08:27:53;;;;;;;1.60;1.10;;;;;;;;;;5017969;28;20204;-50
2023/01/31 08:30:19;;;;;;;4.00;1.40;;;;;;;;;;5017066;28;20207;-50
2023/01/31 08:32:45;;;;;;;3.67;1.08;;;;;;;;;;5007162;28;20236;-49
2023/01/31 08:35:11;;;;;;;3.38;1.40;;;;;;;;;;5015178;28;20186;-48
2023/01/31 08:37:37;;;;;;;3.08;1.23;;;;;;;;;;5017753;28;20591;-47
2023/01/31 08:40:03;;;;;;;6.00;1.60;;;;;;;;;;5017893;28;20223;-48
2023/01/31 08:42:29;;;;;;;4.63;1.30;;;;;;;;;;5017335;28;20187;-48
2023/01/31 08:44:55;;;;;;;5.95;1.20;;;;;;;;;;5015036;28;20184;-48
2023/01/31 08:47:21;;;;;;;6.05;1.20;;;;;;;;;;5012786;28;20514;-48
2023/01/31 08:49:47;;;;;;;4.22;1.10;;;;;;;;;;5013272;28;20188;-48
2023/01/31 08:52:13;;;;;;;3.42;1.10;;;;;;;;;;5013351;28;20231;-48
2023/01/31 08:54:38;;;;;;;4.10;1.17;;;;;;;;;;5011788;28;20191;-48
2023/01/31 08:57:04;;;;;;;3.47;1.25;;;;;;;;;;5012067;28;20208;-48
2023/01/31 08:59:31;;;;;;;4.60;1.55;;;;;;;;;;5014234;28;20219;-48
2023/01/31 09:01:57;;;;;;;2.83;1.30;;;;;;;;;;5008835;28;20263;-48
2023/01/31 09:04:23;;;;;;;8.65;1.25;;;;;;;;;;5010636;28;20276;-48
2023/01/31 09:06:49;;;;;;;2.67;0.90;;;;;;;;;;5015278;28;20238;-48
2023/01/31 09:09:15;;;;;;;2.88;1.02;;;;;;;;;;5012169;28;20193;-48
2023/01/31 09:11:41;;;;;;;3.05;1.27;;;;;;;;;;5014130;28;20199;-48
2023/01/31 09:14:06;;;;;;;3.33;1.00;;;;;;;;;;5011015;28;20184;-48
2023/01/31 09:16:32;;;;;;;4.35;1.30;;;;;;;;;;5008722;28;20634;-48
2023/01/31 09:18:58;;;;;;;2.22;1.10;;;;;;;;;;5014541;28;20180;-48
2023/01/31 09:21:24;;;;;;;4.32;1.10;;;;;;;;;;5010913;28;20418;-48
2023/01/31 09:23:54;;;;;;;4.80;0.90;;;;;;;;;;5005469;28;20185;-50
2023/01/31 09:26:20;;;;;;;2.85;0.85;;;;;;;;;;5011470;28;20525;-47
2023/01/31 09:28:46;;;;;;;2.35;1.10;;;;;;;;;;5009577;28;20195;-48
2023/01/31 09:31:13;;;;;;;3.15;0.93;;;;;;;;;;5012181;28;20188;-47
2023/01/31 09:33:40;;;;;;;3.45;1.10;;;;;;;;;;5012257;28;20188;-47
2023/01/31 09:36:07;;;;;;;2.42;1.00;;;;;;;;;;5015966;28;20207;-48
2023/01/31 09:38:33;;;;;;;2.88;1.13;;;;;;;;;;5013728;28;20212;-48
2023/01/31 09:41:01;;;;;;;3.45;0.90;;;;;;;;;;5015448;28;20184;-48
2023/01/31 09:43:47;;;;;;;1.75;0.90;;;;;;;;;;5014726;28;20188;-48
2023/01/31 09:46:16;;;;;;;2.33;1.10;;;;;;;;;;5007724;28;20238;-48
2023/01/31 09:48:44;;;;;;;4.10;1.15;;;;;;;;;;5013763;28;20200;-48
2023/01/31 09:51:12;;;;;;;2.17;1.02;;;;;;;;;;5013975;28;20198;-48
2023/01/31 09:53:40;;;;;;;2.65;1.10;;;;;;;;;;5013468;28;20551;-48
2023/01/31 09:56:09;;;;;;;1.42;0.88;;;;;;;;;;5007923;28;20204;-48
2023/01/31 09:58:35;;;;;;;1.25;0.90;;;;;;;;;;5007112;28;20173;-48
2023/01/31 10:01:06;;;;;;;3.50;1.30;;;;;;;;;;5003996;28;20264;-48
2023/01/31 10:03:49;;;;;;;1.77;0.85;;;;;;;;;;5013035;28;20188;-48
2023/01/31 10:06:21;;;;;;;2.13;0.73;;;;;;;;;;5014539;28;20451;-48
2023/01/31 10:08:50;;;;;;;3.72;1.17;;;;;;;;;;5010654;28;20184;-48
2023/01/31 10:11:32;;;;;;;2.33;1.13;;;;;;;;;;5008411;28;20222;-48
2023/01/31 10:14:09;;;;;;;2.58;1.08;;;;;;;;;;5010005;28;20417;-48
2023/01/31 10:16:37;;;;;;;1.90;0.82;;;;;;;;;;5001631;28;20223;-48
2023/01/31 10:19:09;;;;;;;2.97;1.10;;;;;;;;;;5008534;28;20184;-48
2023/01/31 10:21:41;;;;;;;3.70;1.02;;;;;;;;;;5005629;28;20264;-48
2023/01/31 10:24:10;;;;;;;1.42;0.90;;;;;;;;;;5006475;28;20173;-48
2023/01/31 10:26:37;;;;;;;1.73;0.90;;;;;;;;;;5012302;28;20192;-48
2023/01/31 10:29:15;;;;;;;1.95;0.93;;;;;;;;;;5013817;28;20548;-48
2023/01/31 10:31:43;;;;;;;1.17;0.85;;;;;;;;;;5010080;28;20176;-48
2023/01/31 10:34:16;;;;;;;0.70;0.70;;;;;;;;;;5013536;28;20571;-47
2023/01/31 10:36:48;;;;;;;2.38;0.90;;;;;;;;;;5013506;28;20210;-47
2023/01/31 10:39:25;;;;;;;1.77;0.80;;;;;;;;;;5014279;28;20185;-47
2023/01/31 10:42:10;;;;;;;1.08;0.75;;;;;;;;;;5014648;28;20615;-47
2023/01/31 10:44:51;;;;;;;1.67;1.02;;;;;;;;;;5014748;28;20194;-47
2023/01/31 10:47:18;;;;;;;1.65;0.85;;;;;;;;;;5012641;28;20184;-48
2023/01/31 10:49:45;;;;;;;1.33;0.90;;;;;;;;;;5010646;28;20184;-48
2023/01/31 10:52:15;;;;;;;3.58;1.10;;;;;;;;;;5005121;28;20184;-48
2023/01/31 10:54:45;;;;;;;1.77;0.82;;;;;;;;;;5007837;28;20180;-48
2023/01/31 10:57:11;;;;;;;3.92;1.05;;;;;;;;;;5011975;28;20208;-49
2023/01/31 10:59:40;;;;;;;1.25;0.70;;;;;;;;;;5014820;28;20257;-48
2023/01/31 11:02:14;;;;;;;1.38;1.00;;;;;;;;;;5012855;28;20195;-48
2023/01/31 11:04:42;;;;;;;2.20;0.90;;;;;;;;;;5012667;28;20310;-48
2023/01/31 11:07:09;;;;;;;1.80;0.80;;;;;;;;;;5011997;28;20189;-48
2023/01/31 11:09:37;;;;;;;4.32;1.00;;;;;;;;;;5006053;28;20579;-48
2023/01/31 11:12:05;;;;;;;1.23;0.80;;;;;;;;;;5013334;28;20436;-48
2023/01/31 11:14:31;;;;;;;1.27;0.82;;;;;;;;;;5001298;28;20231;-48
2023/01/31 11:17:02;;;;;;;1.13;0.85;;;;;;;;;;5014838;28;20200;-48
2023/01/31 11:19:31;;;;;;;2.15;0.90;;;;;;;;;;5006016;28;20213;-48
2023/01/31 11:21:57;;;;;;;2.15;1.00;;;;;;;;;;5007081;28;20181;-48
2023/01/31 11:24:24;;;;;;;1.95;0.90;;;;;;;;;;5011099;28;20199;-48
2023/01/31 11:26:52;;;;;;;1.70;0.70;;;;;;;;;;5011272;28;20192;-48
2023/01/31 11:29:22;;;;;;;2.75;1.00;;;;;;;;;;5007573;28;20223;-48
2023/01/31 11:31:48;;;;;;;1.52;0.93;;;;;;;;;;5013928;28;20176;-48
2023/01/31 11:34:22;;;;;;;1.75;0.90;;;;;;;;;;5012238;28;20560;-48
2023/01/31 11:36:48;;;;;;;1.27;0.70;;;;;;;;;;5008124;28;20601;-48
2023/01/31 11:39:30;;;;;;;1.65;0.95;;;;;;;;;;5007303;28;20177;-48
2023/01/31 11:41:57;;;;;;;2.78;1.10;;;;;;;;;;5006935;28;20172;-48
2023/01/31 11:44:23;;;;;;;1.48;0.90;;;;;;;;;;5008725;28;20441;-48
2023/01/31 11:46:56;;;;;;;2.05;0.93;;;;;;;;;;5013057;28;20185;-48
2023/01/31 11:49:31;;;;;;;2.58;0.98;;;;;;;;;;5010039;28;20291;-48
2023/01/31 11:51:58;;;;;;;1.95;0.93;;;;;;;;;;5005368;28;20192;-48
2023/01/31 11:54:26;;;;;;;1.70;0.90;;;;;;;;;;5013410;28;20194;-49
2023/01/31 11:56:52;;;;;;;0.70;0.70;;;;;;;;;;5010900;28;20216;-48
2023/01/31 11:59:21;;;;;;;2.22;1.00;;;;;;;;;;5012816;28;20463;-48
2023/01/31 12:01:51;;;;;;;1.10;0.85;;;;;;;;;;5012865;28;20184;-48
2023/01/31 12:04:23;;;;;;;1.33;0.82;;;;;;;;;;5007622;28;20537;-48
2023/01/31 12:07:03;;;;;;;2.13;0.88;;;;;;;;;;5013267;28;20212;-48
2023/01/31 12:09:31;;;;;;;2.70;1.20;;;;;;;;;;5007969;28;20540;-48
2023/01/31 12:12:05;;;;;;;2.20;0.93;;;;;;;;;;5005938;28;20188;-48
2023/01/31 12:14:39;;;;;;;1.40;0.90;;;;;;;;;;5009852;28;20235;-48
2023/01/31 12:17:05;;;;;;;1.38;0.82;;;;;;;;;;5010942;28;20469;-48
2023/01/31 12:19:41;;;;;;;2.40;1.10;;;;;;;;;;5013864;28;20181;-48
2023/01/31 12:22:21;;;;;;;1.33;0.80;;;;;;;;;;5008379;28;20190;-47
2023/01/31 12:24:47;;;;;;;1.92;1.05;;;;;;;;;;5010180;28;20196;-47
2023/01/31 12:27:20;;;;;;;1.55;0.90;;;;;;;;;;5009779;28;20204;-48
2023/01/31 12:30:05;;;;;;;1.73;0.80;;;;;;;;;;5003670;28;20638;-47
2023/01/31 12:32:40;;;;;;;1.02;0.75;;;;;;;;;;5011300;28;20207;-48
2023/01/31 12:35:30;;;;;;;1.83;1.02;;;;;;;;;;5014113;28;20246;-48
2023/01/31 12:38:24;;;;;;;1.40;0.80;;;;;;;;;;5008124;28;20204;-48
2023/01/31 12:40:52;;;;;;;1.33;0.90;;;;;;;;;;5017177;28;20181;-48
2023/01/31 12:43:30;;;;;;;2.53;0.75;;;;;;;;;;5015894;28;20287;-48
2023/01/31 12:46:05;;;;;;;3.08;1.00;;;;;;;;;;5007711;28;20173;-48
2023/01/31 12:48:50;;;;;;;1.13;0.80;;;;;;;;;;5010066;28;20427;-48
2023/01/31 12:51:39;;;;;;;2.35;1.10;;;;;;;;;;5013511;28;20204;-48
2023/01/31 12:54:17;;;;;;;1.95;1.30;;;;;;;;;;5009990;28;20238;-48
2023/01/31 12:56:49;;;;;;;2.65;0.93;;;;;;;;;;5017190;28;20227;-48
2023/01/31 12:59:23;;;;;;;1.98;0.98;;;;;;;;;;5016647;28;20427;-48
2023/01/31 13:01:56;;;;;;;1.83;0.90;;;;;;;;;;5009987;28;20181;-48
2023/01/31 13:04:36;;;;;;;2.25;1.00;;;;;;;;;;5009786;28;20172;-48
2023/01/31 13:07:08;;;;;;;1.75;1.05;;;;;;;;;;5016778;28;20187;-48
2023/01/31 13:09:35;;;;;;;2.38;1.10;;;;;;;;;;5010824;28;20191;-48
2023/01/31 13:12:18;;;;;;;2.15;0.85;;;;;;;;;;5015574;28;20215;-48
2023/01/31 13:14:46;;;;;;;1.73;0.90;;;;;;;;;;5009372;28;20559;-48
2023/01/31 13:17:13;;;;;;;2.45;1.10;;;;;;;;;;5014411;28;20208;-48
2023/01/31 13:20:00;;;;;;;3.88;1.20;;;;;;;;;;5014928;28;20192;-48
2023/01/31 13:22:45;;;;;;;2.42;0.85;;;;;;;;;;5005468;28;20178;-48
2023/01/31 13:25:18;;;;;;;1.73;0.82;;;;;;;;;;5015202;28;20206;-48
2023/01/31 13:27:46;;;;;;;1.55;0.98;;;;;;;;;;5010565;28;20192;-48
2023/01/31 13:30:15;;;;;;;1.27;0.88;;;;;;;;;;5009266;28;20765;-48
2023/01/31 13:32:44;;;;;;;3.00;1.30;;;;;;;;;;5008381;28;20456;-48
2023/01/31 13:35:16;;;;;;;1.55;0.80;;;;;;;;;;5000143;28;20185;-48
2023/01/31 13:37:44;;;;;;;1.63;1.00;;;;;;;;;;5002035;28;20304;-48
2023/01/31 13:40:19;;;;;;;1.20;0.90;;;;;;;;;;5003789;28;20186;-48
2023/01/31 13:42:44;;;;;;;1.90;0.90;;;;;;;;;;5003219;28;20184;-48
2023/01/31 13:45:19;;;;;;;1.48;0.90;;;;;;;;;;4997961;28;20190;-48
2023/01/31 13:47:53;;;;;;;1.65;0.80;;;;;;;;;;5004974;28;20584;-48
2023/01/31 13:50:33;;;;;;;1.73;0.82;;;;;;;;;;5008676;28;20180;-48
2023/01/31 13:53:00;;;;;;;1.08;0.80;;;;;;;;;;5007153;28;20282;-48
2023/01/31 13:55:43;;;;;;;0.90;0.80;;;;;;;;;;5005201;28;20187;-48
2023/01/31 13:58:15;;;;;;;2.22;0.98;;;;;;;;;;4999768;28;20248;-48
2023/01/31 14:00:43;;;;;;;1.20;0.82;;;;;;;;;;5010216;28;20552;-48
2023/01/31 14:03:09;;;;;;;1.67;0.90;;;;;;;;;;5008488;28;20208;-48
2023/01/31 14:05:44;;;;;;;1.30;0.80;;;;;;;;;;5012210;28;20222;-48
2023/01/31 14:08:30;;;;;;;1.05;0.90;;;;;;;;;;5011347;28;20184;-48
2023/01/31 14:11:00;;;;;;;2.83;1.05;;;;;;;;;;5009285;28;20192;-48
2023/01/31 14:13:36;;;;;;;1.33;0.85;;;;;;;;;;5008718;28;20183;-48
2023/01/31 14:16:02;;;;;;;1.77;0.88;;;;;;;;;;5013077;28;20255;-48
2023/01/31 14:18:38;;;;;;;1.33;0.90;;;;;;;;;;5008045;28;20219;-48
2023/01/31 14:21:33;;;;;;;1.00;0.90;;;;;;;;;;5007076;28;20208;-48
2023/01/31 14:24:00;;;;;;;1.73;0.93;;;;;;;;;;5015904;28;20481;-48
2023/01/31 14:26:41;;;;;;;1.05;0.90;;;;;;;;;;5014756;28;20196;-48
2023/01/31 14:29:15;;;;;;;1.70;1.15;;;;;;;;;;5006219;28;20195;-48
2023/01/31 14:31:43;;;;;;;1.25;1.02;;;;;;;;;;5013428;28;20192;-48
2023/01/31 14:34:26;;;;;;;0.93;0.80;;;;;;;;;;5011146;28;20188;-48
2023/01/31 14:37:18;;;;;;;1.63;0.90;;;;;;;;;;5008288;28;20208;-48
2023/01/31 14:40:03;;;;;;;2.20;1.17;;;;;;;;;;4985873;28;20196;-48
2023/01/31 14:42:38;;;;;;;1.67;1.10;;;;;;;;;;5010150;28;20199;-48
2023/01/31 14:45:27;;;;;;;1.30;0.82;;;;;;;;;;5013019;28;20194;-48
2023/01/31 14:48:01;;;;;;;1.50;1.02;;;;;;;;;;5013806;28;20185;-47
2023/01/31 14:50:30;;;;;;;1.52;0.88;;;;;;;;;;5002894;28;20184;-48
2023/01/31 14:53:08;;;;;;;1.80;0.80;;;;;;;;;;4999624;28;20280;-48
2023/01/31 14:55:34;;;;;;;2.67;0.93;;;;;;;;;;5007913;28;20172;-48
2023/01/31 14:58:01;;;;;;;1.40;0.93;;;;;;;;;;5013691;28;20522;-48
2023/01/31 15:00:32;;;;;;;2.33;0.88;;;;;;;;;;5008711;28;20173;-48
2023/01/31 15:03:04;;;;;;;1.20;0.80;;;;;;;;;;5003869;28;20204;-48
2023/01/31 15:05:36;;;;;;;1.00;0.60;;;;;;;;;;5006351;28;20172;-48